OSLK1: Labette Creek nr Oswego Ks

Data processed at Wed May 22 2019 23:50


All information presented herein is the property of the government of the United States of America and may be revised or deleted at any time without prior notice.
Dissemination of this information without the expressed written consent of the Public Affairs Office, Tulsa District U.S. Army Corps of Engineers is strictly prohibited.
These data are gathered electronically and, as presented, have not undergone any form of quality control. These data are not guaranteed to be valid or correct.
Go to home page.
Go to station list.
Go to home page.

Downstream station:


Previous Day
Next Day
Current Day
    
SHEF ID:       OSLK1     LABETTE C NR OSWEGO, KS
STATION TYPE:  
Regulating: Stage =    20.00, Flow =     5485

               PRECIP     STAGE  STAGE(2)  RIV-FLOW  BAT-LOAD
                   in        ft        ft       cfs      volt
              Ccp-Rev   Ccp-Rev   Ccp-Rev   Ccp-Rev   Ccp-Rev
(US/Central)
05/22 00:00      0.00     25.18      ----     13138     12.97
05/22 01:00      0.00     25.24      ----     13342     12.97
05/22 02:00      0.00     25.27      ----      ----     12.97
05/22 03:00      0.00     25.30      ----      ----     12.89
05/22 04:00      0.00     25.31      ----      ----     12.89
05/22 05:00      0.00     25.30      ----      ----     12.89
05/22 06:00      0.00     25.26      ----     13410     12.81
05/22 07:00      0.00     25.22      ----     13274     12.81
05/22 08:00      0.00     25.16      ----     13071     12.81
05/22 09:00      0.00     25.10      ----     12870     13.05
05/22 10:00      0.00     25.02      ----     12606     13.60
05/22 11:00      0.00     24.94      ----     12347     13.53
05/22 12:00      0.00     24.85      ----     12061     13.53
05/22 13:00      0.00     24.76      ----     11780     13.53
05/22 14:00      0.00     24.65      ----     11443     13.44
05/22 15:00      0.00     24.54      ----     11115     13.53
05/22 16:00      0.00     24.42      ----     10765     13.44
05/22 17:00      0.00     24.29      ----     10396     13.44
05/22 18:00      0.00     24.15      ----     10010     13.44
05/22 19:00      0.10     24.04      ----      9715     13.37
05/22 20:00      0.12     23.91      ----      9376     13.13
05/22 21:00      0.03     23.75      ----      8971     13.05
05/22 22:00      0.00     23.57      ----      8533     12.97
05/22 23:00      0.12     23.38      ----      8089     12.97